sensor_id;sensor_type;location;lat;lon;timestamp;P1;durP1;ratioP1;P2;durP2;ratioP2
54871;SDS011;43914;57.680;11.982;2023-10-08T00:02:16;4.10;;;1.10;;
54871;SDS011;43914;57.680;11.982;2023-10-08T00:04:50;3.90;;;1.10;;
54871;SDS011;43914;57.680;11.982;2023-10-08T00:07:17;3.60;;;1.00;;
54871;SDS011;43914;57.680;11.982;2023-10-08T00:09:47;4.70;;;1.10;;
54871;SDS011;43914;57.680;11.982;2023-10-08T00:12:15;4.70;;;1.10;;
54871;SDS011;43914;57.680;11.982;2023-10-08T00:14:43;2.90;;;1.00;;
54871;SDS011;43914;57.680;11.982;2023-10-08T00:17:15;4.20;;;1.10;;
54871;SDS011;43914;57.680;11.982;2023-10-08T00:19:41;5.10;;;1.20;;
54871;SDS011;43914;57.680;11.982;2023-10-08T00:22:12;5.20;;;1.10;;
54871;SDS011;43914;57.680;11.982;2023-10-08T00:24:43;4.20;;;1.10;;
54871;SDS011;43914;57.680;11.982;2023-10-08T00:27:08;4.70;;;1.10;;
54871;SDS011;43914;57.680;11.982;2023-10-08T00:29:34;4.80;;;1.30;;
54871;SDS011;43914;57.680;11.982;2023-10-08T00:32:04;5.60;;;1.60;;
54871;SDS011;43914;57.680;11.982;2023-10-08T00:34:36;5.90;;;1.50;;
54871;SDS011;43914;57.680;11.982;2023-10-08T00:37:07;3.90;;;1.20;;
54871;SDS011;43914;57.680;11.982;2023-10-08T00:39:39;4.70;;;1.10;;
54871;SDS011;43914;57.680;11.982;2023-10-08T00:42:05;5.30;;;1.40;;
54871;SDS011;43914;57.680;11.982;2023-10-08T00:44:35;5.20;;;1.30;;
54871;SDS011;43914;57.680;11.982;2023-10-08T00:47:12;2.90;;;1.00;;
54871;SDS011;43914;57.680;11.982;2023-10-08T00:49:39;5.40;;;1.30;;
54871;SDS011;43914;57.680;11.982;2023-10-08T00:54:40;5.80;;;1.40;;
54871;SDS011;43914;57.680;11.982;2023-10-08T00:57:16;4.40;;;1.20;;
54871;SDS011;43914;57.680;11.982;2023-10-08T00:59:45;5.00;;;1.30;;
54871;SDS011;43914;57.680;11.982;2023-10-08T01:02:26;4.50;;;1.30;;
54871;SDS011;43914;57.680;11.982;2023-10-08T01:04:54;4.50;;;1.20;;
54871;SDS011;43914;57.680;11.982;2023-10-08T01:07:20;5.10;;;1.10;;
54871;SDS011;43914;57.680;11.982;2023-10-08T01:09:49;4.60;;;1.20;;
54871;SDS011;43914;57.680;11.982;2023-10-08T01:12:25;4.40;;;1.30;;
54871;SDS011;43914;57.680;11.982;2023-10-08T01:15:09;4.90;;;1.20;;
54871;SDS011;43914;57.680;11.982;2023-10-08T01:17:53;4.00;;;1.10;;
54871;SDS011;43914;57.680;11.982;2023-10-08T01:20:37;4.70;;;1.10;;
54871;SDS011;43914;57.680;11.982;2023-10-08T01:23:04;3.80;;;1.00;;
54871;SDS011;43914;57.680;11.982;2023-10-08T01:25:36;3.60;;;0.90;;
54871;SDS011;43914;57.680;11.982;2023-10-08T01:28:03;4.60;;;1.10;;
54871;SDS011;43914;57.680;11.982;2023-10-08T01:30:36;2.50;;;0.80;;
54871;SDS011;43914;57.680;11.982;2023-10-08T01:33:06;4.40;;;1.20;;
54871;SDS011;43914;57.680;11.982;2023-10-08T01:35:40;4.10;;;1.00;;
54871;SDS011;43914;57.680;11.982;2023-10-08T01:38:07;4.10;;;1.00;;
54871;SDS011;43914;57.680;11.982;2023-10-08T01:40:39;3.10;;;0.80;;
54871;SDS011;43914;57.680;11.982;2023-10-08T01:43:05;4.90;;;1.10;;
54871;SDS011;43914;57.680;11.982;2023-10-08T01:45:31;2.50;;;0.90;;
54871;SDS011;43914;57.680;11.982;2023-10-08T01:47:57;3.10;;;0.80;;
54871;SDS011;43914;57.680;11.982;2023-10-08T01:50:23;3.70;;;0.90;;
54871;SDS011;43914;57.680;11.982;2023-10-08T01:52:59;3.90;;;1.00;;
54871;SDS011;43914;57.680;11.982;2023-10-08T01:55:26;3.10;;;0.80;;
54871;SDS011;43914;57.680;11.982;2023-10-08T01:57:51;3.90;;;0.80;;
54871;SDS011;43914;57.680;11.982;2023-10-08T02:00:18;4.70;;;1.10;;
54871;SDS011;43914;57.680;11.982;2023-10-08T02:02:48;3.30;;;0.90;;
54871;SDS011;43914;57.680;11.982;2023-10-08T02:05:19;2.90;;;0.80;;
54871;SDS011;43914;57.680;11.982;2023-10-08T02:07:46;2.20;;;0.90;;
54871;SDS011;43914;57.680;11.982;2023-10-08T02:10:12;3.10;;;0.80;;
54871;SDS011;43914;57.680;11.982;2023-10-08T02:12:39;2.10;;;0.70;;
54871;SDS011;43914;57.680;11.982;2023-10-08T02:15:06;3.00;;;0.90;;
54871;SDS011;43914;57.680;11.982;2023-10-08T02:17:33;3.00;;;0.90;;
54871;SDS011;43914;57.680;11.982;2023-10-08T02:20:00;2.70;;;0.80;;
54871;SDS011;43914;57.680;11.982;2023-10-08T02:22:30;2.60;;;0.90;;
54871;SDS011;43914;57.680;11.982;2023-10-08T02:24:56;3.40;;;0.80;;
54871;SDS011;43914;57.680;11.982;2023-10-08T02:27:26;4.90;;;0.90;;
54871;SDS011;43914;57.680;11.982;2023-10-08T02:29:54;2.20;;;0.70;;
54871;SDS011;43914;57.680;11.982;2023-10-08T02:32:21;2.50;;;0.90;;
54871;SDS011;43914;57.680;11.982;2023-10-08T02:34:49;3.10;;;1.00;;
54871;SDS011;43914;57.680;11.982;2023-10-08T02:37:15;3.10;;;0.90;;
54871;SDS011;43914;57.680;11.982;2023-10-08T02:39:41;3.00;;;0.90;;
54871;SDS011;43914;57.680;11.982;2023-10-08T02:42:07;3.40;;;0.90;;
54871;SDS011;43914;57.680;11.982;2023-10-08T02:44:36;2.60;;;0.80;;
54871;SDS011;43914;57.680;11.982;2023-10-08T02:47:09;2.30;;;0.70;;
54871;SDS011;43914;57.680;11.982;2023-10-08T02:49:39;2.80;;;0.90;;
54871;SDS011;43914;57.680;11.982;2023-10-08T02:52:07;3.30;;;0.90;;
54871;SDS011;43914;57.680;11.982;2023-10-08T02:54:36;4.90;;;1.10;;
54871;SDS011;43914;57.680;11.982;2023-10-08T02:57:02;3.10;;;1.00;;
54871;SDS011;43914;57.680;11.982;2023-10-08T02:59:34;2.40;;;0.90;;
54871;SDS011;43914;57.680;11.982;2023-10-08T03:02:10;4.00;;;1.00;;
54871;SDS011;43914;57.680;11.982;2023-10-08T03:04:54;2.90;;;0.90;;
54871;SDS011;43914;57.680;11.982;2023-10-08T03:07:20;2.60;;;0.80;;
54871;SDS011;43914;57.680;11.982;2023-10-08T03:09:57;3.30;;;1.00;;
54871;SDS011;43914;57.680;11.982;2023-10-08T03:12:31;6.10;;;1.00;;
54871;SDS011;43914;57.680;11.982;2023-10-08T03:15:17;3.80;;;0.90;;
54871;SDS011;43914;57.680;11.982;2023-10-08T03:18:02;2.00;;;0.70;;
54871;SDS011;43914;57.680;11.982;2023-10-08T03:20:54;2.20;;;0.80;;
54871;SDS011;43914;57.680;11.982;2023-10-08T03:23:28;3.20;;;0.90;;
54871;SDS011;43914;57.680;11.982;2023-10-08T03:26:02;5.20;;;0.90;;
54871;SDS011;43914;57.680;11.982;2023-10-08T03:28:57;3.70;;;1.00;;
54871;SDS011;43914;57.680;11.982;2023-10-08T03:31:43;2.90;;;0.80;;
54871;SDS011;43914;57.680;11.982;2023-10-08T03:34:12;3.30;;;0.90;;
54871;SDS011;43914;57.680;11.982;2023-10-08T03:36:40;2.80;;;0.80;;
54871;SDS011;43914;57.680;11.982;2023-10-08T03:39:10;4.30;;;1.00;;
54871;SDS011;43914;57.680;11.982;2023-10-08T03:41:38;3.10;;;0.80;;
54871;SDS011;43914;57.680;11.982;2023-10-08T03:44:07;2.80;;;0.90;;
54871;SDS011;43914;57.680;11.982;2023-10-08T03:46:59;3.20;;;0.90;;
54871;SDS011;43914;57.680;11.982;2023-10-08T03:49:31;3.10;;;0.70;;
54871;SDS011;43914;57.680;11.982;2023-10-08T03:51:57;3.70;;;1.00;;
54871;SDS011;43914;57.680;11.982;2023-10-08T03:54:22;3.20;;;0.90;;
54871;SDS011;43914;57.680;11.982;2023-10-08T03:56:55;2.10;;;0.80;;
54871;SDS011;43914;57.680;11.982;2023-10-08T03:59:21;2.30;;;0.80;;
54871;SDS011;43914;57.680;11.982;2023-10-08T04:02:06;3.50;;;0.80;;
54871;SDS011;43914;57.680;11.982;2023-10-08T04:04:43;3.20;;;0.90;;
54871;SDS011;43914;57.680;11.982;2023-10-08T04:07:23;2.50;;;0.80;;
54871;SDS011;43914;57.680;11.982;2023-10-08T04:09:59;2.60;;;0.90;;
54871;SDS011;43914;57.680;11.982;2023-10-08T04:12:34;3.20;;;0.90;;
54871;SDS011;43914;57.680;11.982;2023-10-08T04:15:04;3.90;;;1.00;;
54871;SDS011;43914;57.680;11.982;2023-10-08T04:17:33;2.40;;;0.80;;
54871;SDS011;43914;57.680;11.982;2023-10-08T04:20:14;4.40;;;0.90;;
54871;SDS011;43914;57.680;11.982;2023-10-08T04:22:58;3.80;;;1.00;;
54871;SDS011;43914;57.680;11.982;2023-10-08T04:25:28;6.60;;;1.10;;
54871;SDS011;43914;57.680;11.982;2023-10-08T04:27:55;1.90;;;0.70;;
54871;SDS011;43914;57.680;11.982;2023-10-08T04:30:32;2.40;;;0.90;;
54871;SDS011;43914;57.680;11.982;2023-10-08T04:33:01;2.40;;;0.80;;
54871;SDS011;43914;57.680;11.982;2023-10-08T04:35:53;3.10;;;0.90;;
54871;SDS011;43914;57.680;11.982;2023-10-08T04:38:23;4.10;;;1.00;;
54871;SDS011;43914;57.680;11.982;2023-10-08T04:41:04;3.00;;;0.90;;
54871;SDS011;43914;57.680;11.982;2023-10-08T04:43:34;2.10;;;0.80;;
54871;SDS011;43914;57.680;11.982;2023-10-08T04:46:03;2.50;;;0.80;;
54871;SDS011;43914;57.680;11.982;2023-10-08T04:49:04;3.40;;;1.00;;
54871;SDS011;43914;57.680;11.982;2023-10-08T04:51:42;2.40;;;0.80;;
54871;SDS011;43914;57.680;11.982;2023-10-08T04:54:14;5.90;;;1.00;;
54871;SDS011;43914;57.680;11.982;2023-10-08T04:56:50;3.50;;;0.90;;
54871;SDS011;43914;57.680;11.982;2023-10-08T04:59:18;2.80;;;0.80;;
54871;SDS011;43914;57.680;11.982;2023-10-08T05:01:47;2.80;;;0.80;;
54871;SDS011;43914;57.680;11.982;2023-10-08T05:04:14;2.70;;;0.80;;
54871;SDS011;43914;57.680;11.982;2023-10-08T05:06:51;3.90;;;0.90;;
54871;SDS011;43914;57.680;11.982;2023-10-08T05:09:26;2.90;;;0.90;;
54871;SDS011;43914;57.680;11.982;2023-10-08T05:12:06;3.10;;;1.00;;
54871;SDS011;43914;57.680;11.982;2023-10-08T05:14:50;4.10;;;0.80;;
54871;SDS011;43914;57.680;11.982;2023-10-08T05:17:36;2.90;;;0.90;;
54871;SDS011;43914;57.680;11.982;2023-10-08T05:20:21;2.90;;;0.90;;
54871;SDS011;43914;57.680;11.982;2023-10-08T05:23:12;3.90;;;1.00;;
54871;SDS011;43914;57.680;11.982;2023-10-08T05:25:54;3.90;;;0.90;;
54871;SDS011;43914;57.680;11.982;2023-10-08T05:28:35;2.90;;;1.10;;
54871;SDS011;43914;57.680;11.982;2023-10-08T05:31:13;3.50;;;0.80;;
54871;SDS011;43914;57.680;11.982;2023-10-08T05:33:40;2.90;;;0.80;;
54871;SDS011;43914;57.680;11.982;2023-10-08T05:36:25;3.90;;;1.00;;
54871;SDS011;43914;57.680;11.982;2023-10-08T05:39:01;3.30;;;0.90;;
54871;SDS011;43914;57.680;11.982;2023-10-08T05:41:45;3.10;;;0.70;;
54871;SDS011;43914;57.680;11.982;2023-10-08T05:44:17;4.20;;;0.90;;
54871;SDS011;43914;57.680;11.982;2023-10-08T05:46:45;2.90;;;0.90;;
54871;SDS011;43914;57.680;11.982;2023-10-08T05:49:36;3.00;;;0.70;;
54871;SDS011;43914;57.680;11.982;2023-10-08T05:52:18;2.60;;;0.80;;
54871;SDS011;43914;57.680;11.982;2023-10-08T05:55:15;3.20;;;1.00;;
54871;SDS011;43914;57.680;11.982;2023-10-08T05:57:58;2.60;;;0.80;;
54871;SDS011;43914;57.680;11.982;2023-10-08T06:00:44;3.30;;;1.00;;
54871;SDS011;43914;57.680;11.982;2023-10-08T06:03:14;2.40;;;0.90;;
54871;SDS011;43914;57.680;11.982;2023-10-08T06:06:00;2.80;;;0.80;;
54871;SDS011;43914;57.680;11.982;2023-10-08T06:08:56;9.40;;;4.70;;
54871;SDS011;43914;57.680;11.982;2023-10-08T06:11:37;9.30;;;3.70;;
54871;SDS011;43914;57.680;11.982;2023-10-08T06:14:35;5.70;;;1.70;;
54871;SDS011;43914;57.680;11.982;2023-10-08T06:17:32;5.40;;;1.40;;
54871;SDS011;43914;57.680;11.982;2023-10-08T06:20:17;4.40;;;0.90;;
54871;SDS011;43914;57.680;11.982;2023-10-08T06:22:49;2.80;;;0.80;;
54871;SDS011;43914;57.680;11.982;2023-10-08T06:25:15;5.60;;;1.10;;
54871;SDS011;43914;57.680;11.982;2023-10-08T06:27:48;4.30;;;1.00;;
54871;SDS011;43914;57.680;11.982;2023-10-08T06:30:19;3.70;;;1.00;;
54871;SDS011;43914;57.680;11.982;2023-10-08T06:32:44;4.00;;;1.00;;
54871;SDS011;43914;57.680;11.982;2023-10-08T06:35:10;3.70;;;1.00;;
54871;SDS011;43914;57.680;11.982;2023-10-08T06:37:43;2.60;;;0.90;;
54871;SDS011;43914;57.680;11.982;2023-10-08T06:40:19;3.40;;;0.90;;
54871;SDS011;43914;57.680;11.982;2023-10-08T06:43:04;5.10;;;1.10;;
54871;SDS011;43914;57.680;11.982;2023-10-08T06:45:49;3.70;;;1.10;;
54871;SDS011;43914;57.680;11.982;2023-10-08T06:48:21;5.20;;;1.30;;
54871;SDS011;43914;57.680;11.982;2023-10-08T06:50:58;3.20;;;0.90;;
54871;SDS011;43914;57.680;11.982;2023-10-08T06:53:23;3.30;;;1.00;;
54871;SDS011;43914;57.680;11.982;2023-10-08T06:55:49;4.30;;;1.00;;
54871;SDS011;43914;57.680;11.982;2023-10-08T06:58:24;4.60;;;1.00;;
54871;SDS011;43914;57.680;11.982;2023-10-08T07:00:50;3.60;;;0.90;;
54871;SDS011;43914;57.680;11.982;2023-10-08T07:03:16;3.60;;;0.90;;
54871;SDS011;43914;57.680;11.982;2023-10-08T07:05:45;3.00;;;0.90;;
54871;SDS011;43914;57.680;11.982;2023-10-08T07:08:23;4.40;;;0.90;;
54871;SDS011;43914;57.680;11.982;2023-10-08T07:10:50;3.00;;;0.80;;
54871;SDS011;43914;57.680;11.982;2023-10-08T07:13:16;3.60;;;1.10;;
54871;SDS011;43914;57.680;11.982;2023-10-08T07:15:48;3.00;;;0.90;;
54871;SDS011;43914;57.680;11.982;2023-10-08T07:18:14;5.50;;;1.00;;
54871;SDS011;43914;57.680;11.982;2023-10-08T07:20:45;2.90;;;0.90;;
54871;SDS011;43914;57.680;11.982;2023-10-08T07:23:11;5.70;;;1.30;;
54871;SDS011;43914;57.680;11.982;2023-10-08T07:26:03;4.00;;;1.00;;
54871;SDS011;43914;57.680;11.982;2023-10-08T07:28:49;3.60;;;1.00;;
54871;SDS011;43914;57.680;11.982;2023-10-08T07:31:27;3.10;;;1.00;;
54871;SDS011;43914;57.680;11.982;2023-10-08T07:33:56;4.90;;;1.10;;
54871;SDS011;43914;57.680;11.982;2023-10-08T07:36:41;4.80;;;1.30;;
54871;SDS011;43914;57.680;11.982;2023-10-08T07:39:08;3.10;;;0.80;;
54871;SDS011;43914;57.680;11.982;2023-10-08T07:41:54;4.90;;;1.00;;
54871;SDS011;43914;57.680;11.982;2023-10-08T07:44:20;7.00;;;1.10;;
54871;SDS011;43914;57.680;11.982;2023-10-08T07:46:50;2.90;;;0.80;;
54871;SDS011;43914;57.680;11.982;2023-10-08T07:49:19;2.50;;;0.70;;
54871;SDS011;43914;57.680;11.982;2023-10-08T07:51:46;2.20;;;0.70;;
54871;SDS011;43914;57.680;11.982;2023-10-08T07:56:45;3.10;;;0.80;;
54871;SDS011;43914;57.680;11.982;2023-10-08T07:59:12;2.90;;;1.00;;
54871;SDS011;43914;57.680;11.982;2023-10-08T08:01:40;3.30;;;1.00;;
54871;SDS011;43914;57.680;11.982;2023-10-08T08:04:08;3.40;;;0.90;;
54871;SDS011;43914;57.680;11.982;2023-10-08T08:06:37;2.80;;;0.90;;
54871;SDS011;43914;57.680;11.982;2023-10-08T08:09:03;3.80;;;1.00;;
54871;SDS011;43914;57.680;11.982;2023-10-08T08:11:48;2.90;;;0.90;;
54871;SDS011;43914;57.680;11.982;2023-10-08T08:14:14;4.10;;;0.90;;
54871;SDS011;43914;57.680;11.982;2023-10-08T08:16:50;3.60;;;1.10;;
54871;SDS011;43914;57.680;11.982;2023-10-08T08:19:16;3.40;;;0.80;;
54871;SDS011;43914;57.680;11.982;2023-10-08T08:21:49;2.20;;;0.80;;
54871;SDS011;43914;57.680;11.982;2023-10-08T08:24:14;3.10;;;0.80;;
54871;SDS011;43914;57.680;11.982;2023-10-08T08:26:57;6.20;;;1.30;;
54871;SDS011;43914;57.680;11.982;2023-10-08T08:29:58;3.20;;;1.00;;
54871;SDS011;43914;57.680;11.982;2023-10-08T08:32:38;4.10;;;0.90;;
54871;SDS011;43914;57.680;11.982;2023-10-08T08:35:08;3.90;;;0.90;;
54871;SDS011;43914;57.680;11.982;2023-10-08T08:37:35;3.90;;;0.90;;
54871;SDS011;43914;57.680;11.982;2023-10-08T08:40:03;3.60;;;0.90;;
54871;SDS011;43914;57.680;11.982;2023-10-08T08:42:42;4.70;;;1.00;;
54871;SDS011;43914;57.680;11.982;2023-10-08T08:45:23;2.50;;;0.80;;
54871;SDS011;43914;57.680;11.982;2023-10-08T08:47:52;3.30;;;0.90;;
54871;SDS011;43914;57.680;11.982;2023-10-08T08:50:19;3.80;;;0.90;;
54871;SDS011;43914;57.680;11.982;2023-10-08T08:52:46;3.60;;;0.80;;
54871;SDS011;43914;57.680;11.982;2023-10-08T08:55:12;2.90;;;1.00;;
54871;SDS011;43914;57.680;11.982;2023-10-08T08:57:46;3.90;;;1.10;;
54871;SDS011;43914;57.680;11.982;2023-10-08T09:00:13;3.50;;;0.80;;
54871;SDS011;43914;57.680;11.982;2023-10-08T09:02:41;3.60;;;0.90;;
54871;SDS011;43914;57.680;11.982;2023-10-08T09:05:10;1.40;;;0.60;;
54871;SDS011;43914;57.680;11.982;2023-10-08T09:08:02;4.60;;;0.80;;
54871;SDS011;43914;57.680;11.982;2023-10-08T09:10:30;3.10;;;0.90;;
54871;SDS011;43914;57.680;11.982;2023-10-08T09:13:02;3.80;;;0.80;;
54871;SDS011;43914;57.680;11.982;2023-10-08T09:15:29;3.40;;;0.80;;
54871;SDS011;43914;57.680;11.982;2023-10-08T09:17:55;2.30;;;0.70;;
54871;SDS011;43914;57.680;11.982;2023-10-08T09:20:24;1.80;;;0.70;;
54871;SDS011;43914;57.680;11.982;2023-10-08T09:23:07;3.50;;;0.90;;
54871;SDS011;43914;57.680;11.982;2023-10-08T09:25:37;4.40;;;0.70;;
54871;SDS011;43914;57.680;11.982;2023-10-08T09:28:03;3.30;;;0.80;;
54871;SDS011;43914;57.680;11.982;2023-10-08T09:30:33;3.20;;;0.80;;
54871;SDS011;43914;57.680;11.982;2023-10-08T09:33:06;5.40;;;0.90;;
54871;SDS011;43914;57.680;11.982;2023-10-08T09:35:33;4.80;;;1.00;;
54871;SDS011;43914;57.680;11.982;2023-10-08T09:38:00;3.50;;;0.80;;
54871;SDS011;43914;57.680;11.982;2023-10-08T09:40:28;3.50;;;0.80;;
54871;SDS011;43914;57.680;11.982;2023-10-08T09:42:54;2.50;;;0.80;;
54871;SDS011;43914;57.680;11.982;2023-10-08T09:45:21;2.80;;;0.90;;
54871;SDS011;43914;57.680;11.982;2023-10-08T09:47:49;2.20;;;0.80;;
54871;SDS011;43914;57.680;11.982;2023-10-08T09:50:19;2.10;;;0.80;;
54871;SDS011;43914;57.680;11.982;2023-10-08T09:55:33;2.40;;;0.80;;
54871;SDS011;43914;57.680;11.982;2023-10-08T09:57:58;3.50;;;1.00;;
54871;SDS011;43914;57.680;11.982;2023-10-08T10:00:24;2.00;;;0.70;;
54871;SDS011;43914;57.680;11.982;2023-10-08T10:02:59;2.60;;;0.80;;
54871;SDS011;43914;57.680;11.982;2023-10-08T10:05:29;3.10;;;0.80;;
54871;SDS011;43914;57.680;11.982;2023-10-08T10:07:57;3.10;;;0.70;;
54871;SDS011;43914;57.680;11.982;2023-10-08T10:10:27;3.40;;;0.70;;
54871;SDS011;43914;57.680;11.982;2023-10-08T10:13:05;2.40;;;0.70;;
54871;SDS011;43914;57.680;11.982;2023-10-08T10:15:38;2.80;;;0.80;;
54871;SDS011;43914;57.680;11.982;2023-10-08T10:20:57;3.40;;;1.00;;
54871;SDS011;43914;57.680;11.982;2023-10-08T10:23:36;3.30;;;0.90;;
54871;SDS011;43914;57.680;11.982;2023-10-08T10:26:20;2.40;;;0.80;;
54871;SDS011;43914;57.680;11.982;2023-10-08T10:34:30;3.70;;;0.70;;
54871;SDS011;43914;57.680;11.982;2023-10-08T10:36:59;2.70;;;0.80;;
54871;SDS011;43914;57.680;11.982;2023-10-08T10:39:56;3.00;;;0.80;;
54871;SDS011;43914;57.680;11.982;2023-10-08T10:42:27;3.00;;;0.70;;
54871;SDS011;43914;57.680;11.982;2023-10-08T10:44:54;2.00;;;0.70;;
54871;SDS011;43914;57.680;11.982;2023-10-08T10:47:21;3.90;;;0.80;;
54871;SDS011;43914;57.680;11.982;2023-10-08T10:49:48;2.70;;;0.80;;
54871;SDS011;43914;57.680;11.982;2023-10-08T10:52:33;3.00;;;0.80;;
54871;SDS011;43914;57.680;11.982;2023-10-08T10:55:17;4.00;;;0.90;;
54871;SDS011;43914;57.680;11.982;2023-10-08T10:57:43;3.00;;;0.90;;
54871;SDS011;43914;57.680;11.982;2023-10-08T11:00:30;3.20;;;0.80;;
54871;SDS011;43914;57.680;11.982;2023-10-08T11:03:00;2.80;;;0.80;;
54871;SDS011;43914;57.680;11.982;2023-10-08T11:05:44;3.40;;;0.90;;
54871;SDS011;43914;57.680;11.982;2023-10-08T11:08:14;3.50;;;0.90;;
54871;SDS011;43914;57.680;11.982;2023-10-08T11:10:43;3.10;;;0.80;;
54871;SDS011;43914;57.680;11.982;2023-10-08T11:13:18;2.30;;;0.70;;
54871;SDS011;43914;57.680;11.982;2023-10-08T11:15:46;4.70;;;1.10;;
54871;SDS011;43914;57.680;11.982;2023-10-08T11:18:22;2.90;;;0.80;;
54871;SDS011;43914;57.680;11.982;2023-10-08T11:20:50;3.20;;;0.70;;
54871;SDS011;43914;57.680;11.982;2023-10-08T11:26:02;2.50;;;0.70;;
54871;SDS011;43914;57.680;11.982;2023-10-08T11:28:30;2.60;;;0.70;;
54871;SDS011;43914;57.680;11.982;2023-10-08T11:31:12;3.30;;;0.70;;
54871;SDS011;43914;57.680;11.982;2023-10-08T11:33:43;3.00;;;0.80;;
54871;SDS011;43914;57.680;11.982;2023-10-08T11:36:30;2.50;;;0.60;;
54871;SDS011;43914;57.680;11.982;2023-10-08T11:39:10;2.10;;;0.70;;
54871;SDS011;43914;57.680;11.982;2023-10-08T11:41:54;1.90;;;0.60;;
54871;SDS011;43914;57.680;11.982;2023-10-08T11:44:28;2.30;;;0.60;;
54871;SDS011;43914;57.680;11.982;2023-10-08T11:46:55;1.80;;;0.60;;
54871;SDS011;43914;57.680;11.982;2023-10-08T11:51:58;2.70;;;0.70;;
54871;SDS011;43914;57.680;11.982;2023-10-08T11:54:26;2.80;;;0.70;;
54871;SDS011;43914;57.680;11.982;2023-10-08T11:56:52;2.40;;;0.60;;
54871;SDS011;43914;57.680;11.982;2023-10-08T11:59:18;2.30;;;0.70;;
54871;SDS011;43914;57.680;11.982;2023-10-08T12:01:44;1.40;;;0.60;;
54871;SDS011;43914;57.680;11.982;2023-10-08T12:04:11;2.80;;;0.80;;
54871;SDS011;43914;57.680;11.982;2023-10-08T12:06:42;3.30;;;0.80;;
54871;SDS011;43914;57.680;11.982;2023-10-08T12:09:18;3.20;;;0.80;;
54871;SDS011;43914;57.680;11.982;2023-10-08T12:11:47;1.90;;;0.70;;
54871;SDS011;43914;57.680;11.982;2023-10-08T12:14:13;1.40;;;0.50;;
54871;SDS011;43914;57.680;11.982;2023-10-08T12:16:40;1.10;;;0.60;;
54871;SDS011;43914;57.680;11.982;2023-10-08T12:19:07;2.30;;;0.80;;
54871;SDS011;43914;57.680;11.982;2023-10-08T12:21:45;2.40;;;0.70;;
54871;SDS011;43914;57.680;11.982;2023-10-08T12:24:12;1.30;;;0.50;;
54871;SDS011;43914;57.680;11.982;2023-10-08T12:26:38;3.00;;;0.80;;
54871;SDS011;43914;57.680;11.982;2023-10-08T12:29:13;2.10;;;0.70;;
54871;SDS011;43914;57.680;11.982;2023-10-08T12:31:40;2.40;;;0.70;;
54871;SDS011;43914;57.680;11.982;2023-10-08T12:34:05;2.20;;;0.70;;
54871;SDS011;43914;57.680;11.982;2023-10-08T12:36:31;3.40;;;0.80;;
54871;SDS011;43914;57.680;11.982;2023-10-08T12:39:01;1.80;;;0.60;;
54871;SDS011;43914;57.680;11.982;2023-10-08T12:41:35;3.40;;;0.70;;
54871;SDS011;43914;57.680;11.982;2023-10-08T12:44:03;2.30;;;0.70;;
54871;SDS011;43914;57.680;11.982;2023-10-08T12:46:32;2.60;;;0.70;;
54871;SDS011;43914;57.680;11.982;2023-10-08T12:49:04;2.20;;;0.70;;
54871;SDS011;43914;57.680;11.982;2023-10-08T12:51:31;2.60;;;0.70;;
54871;SDS011;43914;57.680;11.982;2023-10-08T12:54:01;1.20;;;0.60;;
54871;SDS011;43914;57.680;11.982;2023-10-08T12:56:36;2.50;;;0.70;;
54871;SDS011;43914;57.680;11.982;2023-10-08T13:01:45;2.30;;;0.60;;
54871;SDS011;43914;57.680;11.982;2023-10-08T13:04:16;2.70;;;0.60;;
54871;SDS011;43914;57.680;11.982;2023-10-08T13:07:00;2.60;;;0.70;;
54871;SDS011;43914;57.680;11.982;2023-10-08T13:09:28;1.50;;;0.60;;
54871;SDS011;43914;57.680;11.982;2023-10-08T13:11:56;2.40;;;0.70;;
54871;SDS011;43914;57.680;11.982;2023-10-08T13:14:24;1.50;;;0.60;;
54871;SDS011;43914;57.680;11.982;2023-10-08T13:16:50;2.50;;;0.70;;
54871;SDS011;43914;57.680;11.982;2023-10-08T13:19:19;1.40;;;0.50;;
54871;SDS011;43914;57.680;11.982;2023-10-08T13:21:45;1.30;;;0.50;;
54871;SDS011;43914;57.680;11.982;2023-10-08T13:24:11;1.60;;;0.60;;
54871;SDS011;43914;57.680;11.982;2023-10-08T13:26:37;3.10;;;0.60;;
54871;SDS011;43914;57.680;11.982;2023-10-08T13:29:04;2.20;;;0.60;;
54871;SDS011;43914;57.680;11.982;2023-10-08T13:31:30;2.20;;;0.60;;
54871;SDS011;43914;57.680;11.982;2023-10-08T13:34:01;2.20;;;0.60;;
54871;SDS011;43914;57.680;11.982;2023-10-08T13:36:29;1.60;;;0.50;;
54871;SDS011;43914;57.680;11.982;2023-10-08T13:38:55;2.10;;;0.70;;
54871;SDS011;43914;57.680;11.982;2023-10-08T13:41:20;2.10;;;0.70;;
54871;SDS011;43914;57.680;11.982;2023-10-08T13:43:49;1.90;;;0.70;;
54871;SDS011;43914;57.680;11.982;2023-10-08T13:46:27;1.50;;;0.60;;
54871;SDS011;43914;57.680;11.982;2023-10-08T13:48:53;2.00;;;0.60;;
54871;SDS011;43914;57.680;11.982;2023-10-08T13:51:20;4.40;;;0.70;;
54871;SDS011;43914;57.680;11.982;2023-10-08T13:53:51;3.30;;;0.80;;
54871;SDS011;43914;57.680;11.982;2023-10-08T13:56:25;1.60;;;0.60;;
54871;SDS011;43914;57.680;11.982;2023-10-08T13:58:53;3.20;;;0.60;;
54871;SDS011;43914;57.680;11.982;2023-10-08T14:01:29;1.70;;;0.60;;
54871;SDS011;43914;57.680;11.982;2023-10-08T14:03:58;2.00;;;0.60;;
54871;SDS011;43914;57.680;11.982;2023-10-08T14:06:34;1.50;;;0.60;;
54871;SDS011;43914;57.680;11.982;2023-10-08T14:09:01;1.80;;;0.60;;
54871;SDS011;43914;57.680;11.982;2023-10-08T14:11:32;0.80;;;0.50;;
54871;SDS011;43914;57.680;11.982;2023-10-08T14:13:59;2.00;;;0.60;;
54871;SDS011;43914;57.680;11.982;2023-10-08T14:16:29;2.80;;;0.60;;
54871;SDS011;43914;57.680;11.982;2023-10-08T14:18:57;1.70;;;0.60;;
54871;SDS011;43914;57.680;11.982;2023-10-08T14:21:25;2.50;;;0.70;;
54871;SDS011;43914;57.680;11.982;2023-10-08T14:24:02;2.30;;;0.70;;
54871;SDS011;43914;57.680;11.982;2023-10-08T14:26:30;2.50;;;0.70;;
54871;SDS011;43914;57.680;11.982;2023-10-08T14:29:09;1.30;;;0.50;;
54871;SDS011;43914;57.680;11.982;2023-10-08T14:31:51;1.40;;;0.50;;
54871;SDS011;43914;57.680;11.982;2023-10-08T14:34:19;1.80;;;0.60;;
54871;SDS011;43914;57.680;11.982;2023-10-08T14:36:54;2.50;;;0.70;;
54871;SDS011;43914;57.680;11.982;2023-10-08T14:39:38;1.40;;;0.60;;
54871;SDS011;43914;57.680;11.982;2023-10-08T14:42:22;1.60;;;0.50;;
54871;SDS011;43914;57.680;11.982;2023-10-08T14:45:06;2.40;;;0.70;;
54871;SDS011;43914;57.680;11.982;2023-10-08T14:47:36;1.80;;;0.50;;
54871;SDS011;43914;57.680;11.982;2023-10-08T14:50:05;2.30;;;0.60;;
54871;SDS011;43914;57.680;11.982;2023-10-08T14:52:41;3.70;;;0.80;;
54871;SDS011;43914;57.680;11.982;2023-10-08T14:55:07;3.00;;;0.70;;
54871;SDS011;43914;57.680;11.982;2023-10-08T14:57:33;2.00;;;0.70;;
54871;SDS011;43914;57.680;11.982;2023-10-08T14:59:58;3.30;;;0.80;;
54871;SDS011;43914;57.680;11.982;2023-10-08T15:02:24;2.30;;;0.70;;
54871;SDS011;43914;57.680;11.982;2023-10-08T15:04:54;4.50;;;0.90;;
54871;SDS011;43914;57.680;11.982;2023-10-08T15:07:21;2.50;;;0.90;;
54871;SDS011;43914;57.680;11.982;2023-10-08T15:09:47;4.00;;;0.90;;
54871;SDS011;43914;57.680;11.982;2023-10-08T15:12:14;4.40;;;0.70;;
54871;SDS011;43914;57.680;11.982;2023-10-08T15:14:42;2.10;;;0.70;;
54871;SDS011;43914;57.680;11.982;2023-10-08T15:17:07;3.60;;;0.70;;
54871;SDS011;43914;57.680;11.982;2023-10-08T15:19:34;2.20;;;0.70;;
54871;SDS011;43914;57.680;11.982;2023-10-08T15:21:59;3.50;;;0.80;;
54871;SDS011;43914;57.680;11.982;2023-10-08T15:24:26;2.30;;;0.60;;
54871;SDS011;43914;57.680;11.982;2023-10-08T15:26:52;2.60;;;0.80;;
54871;SDS011;43914;57.680;11.982;2023-10-08T15:29:19;16.20;;;2.00;;